sensor_id;sensor_type;location;lat;lon;timestamp;pressure;altitude;pressure_sealevel;temperature;humidity
44992;BME280;56865;51.618;7.406;2023-03-03T00:01:25;101585.91;;;10.07;100.00
44992;BME280;56865;51.618;7.406;2023-03-03T00:03:55;101579.06;;;10.06;100.00
44992;BME280;56865;51.618;7.406;2023-03-03T00:06:25;101573.28;;;9.91;100.00
44992;BME280;56865;51.618;7.406;2023-03-03T00:08:56;101573.44;;;9.94;100.00
44992;BME280;56865;51.618;7.406;2023-03-03T00:11:28;101570.09;;;9.39;100.00
44992;BME280;56865;51.618;7.406;2023-03-03T00:13:57;101566.03;;;9.61;100.00
44992;BME280;56865;51.618;7.406;2023-03-03T00:16:29;101571.88;;;9.98;100.00
44992;BME280;56865;51.618;7.406;2023-03-03T00:19:00;101580.72;;;9.86;100.00
44992;BME280;56865;51.618;7.406;2023-03-03T00:21:31;101575.69;;;9.88;100.00
44992;BME280;56865;51.618;7.406;2023-03-03T00:24:07;101578.38;;;9.91;100.00
44992;BME280;56865;51.618;7.406;2023-03-03T00:26:43;101574.25;;;10.13;100.00
44992;BME280;56865;51.618;7.406;2023-03-03T00:29:24;101569.00;;;10.29;100.00
44992;BME280;56865;51.618;7.406;2023-03-03T00:31:55;101580.69;;;10.44;100.00
44992;BME280;56865;51.618;7.406;2023-03-03T00:34:29;101578.63;;;10.76;100.00
44992;BME280;56865;51.618;7.406;2023-03-03T00:36:59;101581.13;;;10.35;100.00
44992;BME280;56865;51.618;7.406;2023-03-03T00:39:30;101581.34;;;10.20;100.00
44992;BME280;56865;51.618;7.406;2023-03-03T00:42:04;101586.31;;;10.17;100.00
44992;BME280;56865;51.618;7.406;2023-03-03T00:44:40;101583.34;;;9.88;100.00
44992;BME280;56865;51.618;7.406;2023-03-03T00:47:17;101583.47;;;9.91;100.00
44992;BME280;56865;51.618;7.406;2023-03-03T00:49:51;101594.56;;;10.31;100.00
44992;BME280;56865;51.618;7.406;2023-03-03T00:52:20;101593.53;;;9.88;100.00
44992;BME280;56865;51.618;7.406;2023-03-03T00:54:53;101594.06;;;10.00;100.00
44992;BME280;56865;51.618;7.406;2023-03-03T00:57:25;101595.50;;;10.33;100.00
44992;BME280;56865;51.618;7.406;2023-03-03T00:59:55;101589.19;;;10.85;100.00
44992;BME280;56865;51.618;7.406;2023-03-03T01:02:24;101592.56;;;10.84;100.00
44992;BME280;56865;51.618;7.406;2023-03-03T01:04:55;101597.28;;;10.75;100.00
44992;BME280;56865;51.618;7.406;2023-03-03T01:07:24;101600.38;;;10.67;100.00
44992;BME280;56865;51.618;7.406;2023-03-03T01:09:54;101590.88;;;10.44;100.00
44992;BME280;56865;51.618;7.406;2023-03-03T01:12:26;101597.59;;;10.42;100.00
44992;BME280;56865;51.618;7.406;2023-03-03T01:14:56;101593.09;;;10.55;100.00
44992;BME280;56865;51.618;7.406;2023-03-03T01:17:25;101596.66;;;10.39;100.00
44992;BME280;56865;51.618;7.406;2023-03-03T01:19:55;101598.19;;;10.55;100.00
44992;BME280;56865;51.618;7.406;2023-03-03T01:22:24;101592.91;;;10.51;100.00
44992;BME280;56865;51.618;7.406;2023-03-03T01:24:54;101589.38;;;10.09;100.00
44992;BME280;56865;51.618;7.406;2023-03-03T01:27:28;101582.22;;;10.60;100.00
44992;BME280;56865;51.618;7.406;2023-03-03T01:29:57;101577.72;;;10.54;100.00
44992;BME280;56865;51.618;7.406;2023-03-03T01:32:27;101581.25;;;10.36;100.00
44992;BME280;56865;51.618;7.406;2023-03-03T01:34:57;101575.06;;;10.51;100.00
44992;BME280;56865;51.618;7.406;2023-03-03T01:37:26;101580.72;;;10.65;100.00
44992;BME280;56865;51.618;7.406;2023-03-03T01:39:56;101585.72;;;10.62;100.00
44992;BME280;56865;51.618;7.406;2023-03-03T01:42:28;101592.19;;;10.75;100.00
44992;BME280;56865;51.618;7.406;2023-03-03T01:45:12;101601.97;;;10.65;100.00
44992;BME280;56865;51.618;7.406;2023-03-03T01:47:42;101603.44;;;10.80;100.00
44992;BME280;56865;51.618;7.406;2023-03-03T01:50:13;101593.53;;;10.66;100.00
44992;BME280;56865;51.618;7.406;2023-03-03T01:52:44;101586.31;;;10.17;100.00
44992;BME280;56865;51.618;7.406;2023-03-03T01:55:17;101579.47;;;10.35;100.00
44992;BME280;56865;51.618;7.406;2023-03-03T01:57:51;101573.16;;;10.27;100.00
44992;BME280;56865;51.618;7.406;2023-03-03T02:00:23;101570.22;;;10.37;100.00
44992;BME280;56865;51.618;7.406;2023-03-03T02:02:53;101567.03;;;10.42;100.00
44992;BME280;56865;51.618;7.406;2023-03-03T02:05:24;101572.31;;;10.27;100.00
44992;BME280;56865;51.618;7.406;2023-03-03T02:07:54;101574.50;;;10.58;100.00
44992;BME280;56865;51.618;7.406;2023-03-03T02:10:23;101579.16;;;10.88;100.00
44992;BME280;56865;51.618;7.406;2023-03-03T02:12:56;101570.16;;;10.77;100.00
44992;BME280;56865;51.618;7.406;2023-03-03T02:15:27;101577.28;;;10.43;100.00
44992;BME280;56865;51.618;7.406;2023-03-03T02:17:58;101583.75;;;10.76;100.00
44992;BME280;56865;51.618;7.406;2023-03-03T02:20:34;101590.44;;;10.73;100.00
44992;BME280;56865;51.618;7.406;2023-03-03T02:23:10;101590.81;;;10.62;100.00
44992;BME280;56865;51.618;7.406;2023-03-03T02:25:43;101595.31;;;10.48;100.00
44992;BME280;56865;51.618;7.406;2023-03-03T02:28:18;101594.16;;;10.21;100.00
44992;BME280;56865;51.618;7.406;2023-03-03T02:30:49;101581.50;;;10.83;100.00
44992;BME280;56865;51.618;7.406;2023-03-03T02:33:18;101573.53;;;10.76;100.00
44992;BME280;56865;51.618;7.406;2023-03-03T02:35:48;101577.25;;;10.84;100.00
44992;BME280;56865;51.618;7.406;2023-03-03T02:38:19;101587.03;;;10.73;100.00
44992;BME280;56865;51.618;7.406;2023-03-03T02:40:52;101575.84;;;10.69;100.00
44992;BME280;56865;51.618;7.406;2023-03-03T02:43:30;101574.97;;;9.90;100.00
44992;BME280;56865;51.618;7.406;2023-03-03T02:46:01;101575.16;;;10.54;100.00
44992;BME280;56865;51.618;7.406;2023-03-03T02:48:31;101574.94;;;10.48;100.00
44992;BME280;56865;51.618;7.406;2023-03-03T02:51:00;101575.56;;;10.63;100.00
44992;BME280;56865;51.618;7.406;2023-03-03T02:53:30;101583.66;;;10.53;100.00
44992;BME280;56865;51.618;7.406;2023-03-03T02:56:00;101587.75;;;9.92;100.00
44992;BME280;56865;51.618;7.406;2023-03-03T02:58:32;101592.47;;;9.47;100.00
44992;BME280;56865;51.618;7.406;2023-03-03T03:01:02;101592.53;;;10.23;100.00
44992;BME280;56865;51.618;7.406;2023-03-03T03:03:32;101576.59;;;10.88;100.00
44992;BME280;56865;51.618;7.406;2023-03-03T03:06:01;101582.34;;;10.84;100.00
44992;BME280;56865;51.618;7.406;2023-03-03T03:08:31;101579.63;;;10.79;100.00
44992;BME280;56865;51.618;7.406;2023-03-03T03:11:00;101583.13;;;11.02;100.00
44992;BME280;56865;51.618;7.406;2023-03-03T03:13:34;101573.50;;;11.18;100.00
44992;BME280;56865;51.618;7.406;2023-03-03T03:16:03;101576.25;;;11.22;100.00
44992;BME280;56865;51.618;7.406;2023-03-03T03:18:33;101578.72;;;10.98;100.00
44992;BME280;56865;51.618;7.406;2023-03-03T03:21:06;101576.47;;;11.06;100.00
44992;BME280;56865;51.618;7.406;2023-03-03T03:23:36;101589.88;;;11.23;100.00
44992;BME280;56865;51.618;7.406;2023-03-03T03:26:06;101588.31;;;9.67;100.00
44992;BME280;56865;51.618;7.406;2023-03-03T03:28:38;101590.38;;;9.56;100.00
44992;BME280;56865;51.618;7.406;2023-03-03T03:31:08;101597.94;;;9.36;100.00
44992;BME280;56865;51.618;7.406;2023-03-03T03:33:38;101594.69;;;9.21;100.00
44992;BME280;56865;51.618;7.406;2023-03-03T03:36:07;101617.50;;;9.93;100.00
44992;BME280;56865;51.618;7.406;2023-03-03T03:38:37;101610.59;;;9.35;100.00
44992;BME280;56865;51.618;7.406;2023-03-03T03:41:07;101603.06;;;10.12;100.00
44992;BME280;56865;51.618;7.406;2023-03-03T03:43:39;101613.81;;;10.63;100.00
44992;BME280;56865;51.618;7.406;2023-03-03T03:46:09;101606.59;;;10.53;100.00
44992;BME280;56865;51.618;7.406;2023-03-03T03:48:38;101613.50;;;10.55;100.00
44992;BME280;56865;51.618;7.406;2023-03-03T03:51:09;101610.84;;;10.54;100.00
44992;BME280;56865;51.618;7.406;2023-03-03T03:53:38;101612.69;;;10.56;100.00
44992;BME280;56865;51.618;7.406;2023-03-03T03:56:08;101624.00;;;10.63;100.00
44992;BME280;56865;51.618;7.406;2023-03-03T03:58:42;101611.78;;;10.76;100.00
44992;BME280;56865;51.618;7.406;2023-03-03T04:01:11;101614.34;;;10.56;100.00
44992;BME280;56865;51.618;7.406;2023-03-03T04:03:41;101613.97;;;10.47;100.00
44992;BME280;56865;51.618;7.406;2023-03-03T04:06:10;101613.59;;;10.59;100.00
44992;BME280;56865;51.618;7.406;2023-03-03T04:08:40;101610.09;;;10.76;100.00
44992;BME280;56865;51.618;7.406;2023-03-03T04:11:09;101613.34;;;10.72;100.00
44992;BME280;56865;51.618;7.406;2023-03-03T04:13:41;101618.16;;;10.66;100.00
44992;BME280;56865;51.618;7.406;2023-03-03T04:16:11;101605.84;;;10.77;100.00
44992;BME280;56865;51.618;7.406;2023-03-03T04:18:40;101607.97;;;10.66;100.00
44992;BME280;56865;51.618;7.406;2023-03-03T04:21:12;101614.41;;;10.57;100.00
44992;BME280;56865;51.618;7.406;2023-03-03T04:23:42;101622.53;;;10.49;100.00
44992;BME280;56865;51.618;7.406;2023-03-03T04:26:12;101619.28;;;10.72;100.00
44992;BME280;56865;51.618;7.406;2023-03-03T04:28:44;101618.69;;;10.78;100.00
44992;BME280;56865;51.618;7.406;2023-03-03T04:31:13;101614.13;;;10.51;100.00
44992;BME280;56865;51.618;7.406;2023-03-03T04:33:43;101616.47;;;10.66;100.00
44992;BME280;56865;51.618;7.406;2023-03-03T04:36:13;101618.22;;;10.67;100.00
44992;BME280;56865;51.618;7.406;2023-03-03T04:38:42;101606.59;;;10.74;100.00
44992;BME280;56865;51.618;7.406;2023-03-03T04:41:12;101616.03;;;10.55;100.00
44992;BME280;56865;51.618;7.406;2023-03-03T04:43:44;101606.28;;;10.66;100.00
44992;BME280;56865;51.618;7.406;2023-03-03T04:46:15;101616.31;;;10.83;100.00
44992;BME280;56865;51.618;7.406;2023-03-03T04:48:45;101612.97;;;10.84;100.00
44992;BME280;56865;51.618;7.406;2023-03-03T04:51:14;101600.97;;;10.81;100.00
44992;BME280;56865;51.618;7.406;2023-03-03T04:53:44;101611.22;;;10.83;100.00
44992;BME280;56865;51.618;7.406;2023-03-03T04:56:14;101606.22;;;10.65;100.00
44992;BME280;56865;51.618;7.406;2023-03-03T04:58:46;101618.91;;;10.63;100.00
44992;BME280;56865;51.618;7.406;2023-03-03T05:01:16;101616.97;;;10.57;100.00
44992;BME280;56865;51.618;7.406;2023-03-03T05:03:45;101623.47;;;10.51;100.00
44992;BME280;56865;51.618;7.406;2023-03-03T05:06:15;101612.44;;;10.71;100.00
44992;BME280;56865;51.618;7.406;2023-03-03T05:08:44;101609.09;;;10.72;100.00
44992;BME280;56865;51.618;7.406;2023-03-03T05:11:14;101607.91;;;10.64;100.00
44992;BME280;56865;51.618;7.406;2023-03-03T05:13:46;101615.16;;;10.55;100.00
44992;BME280;56865;51.618;7.406;2023-03-03T05:16:16;101613.44;;;10.75;100.00
44992;BME280;56865;51.618;7.406;2023-03-03T05:18:45;101615.72;;;10.69;100.00
44992;BME280;56865;51.618;7.406;2023-03-03T05:21:15;101633.00;;;10.75;100.00
44992;BME280;56865;51.618;7.406;2023-03-03T05:23:44;101625.63;;;10.61;100.00
44992;BME280;56865;51.618;7.406;2023-03-03T05:26:14;101631.38;;;10.37;100.00
44992;BME280;56865;51.618;7.406;2023-03-03T05:28:46;101621.88;;;10.53;100.00
44992;BME280;56865;51.618;7.406;2023-03-03T05:31:15;101624.28;;;10.50;100.00
44992;BME280;56865;51.618;7.406;2023-03-03T05:33:45;101625.97;;;10.49;100.00
44992;BME280;56865;51.618;7.406;2023-03-03T05:36:14;101618.38;;;10.51;100.00
44992;BME280;56865;51.618;7.406;2023-03-03T05:38:44;101617.63;;;10.73;100.00
44992;BME280;56865;51.618;7.406;2023-03-03T05:41:14;101615.50;;;10.43;100.00
44992;BME280;56865;51.618;7.406;2023-03-03T05:43:46;101610.84;;;10.54;100.00
44992;BME280;56865;51.618;7.406;2023-03-03T05:46:17;101616.50;;;10.47;100.00
44992;BME280;56865;51.618;7.406;2023-03-03T05:48:46;101626.00;;;10.31;100.00
44992;BME280;56865;51.618;7.406;2023-03-03T05:51:16;101621.28;;;10.21;100.00
44992;BME280;56865;51.618;7.406;2023-03-03T05:53:45;101623.56;;;10.15;100.00
44992;BME280;56865;51.618;7.406;2023-03-03T05:56:15;101626.22;;;10.16;100.00
44992;BME280;56865;51.618;7.406;2023-03-03T05:58:47;101627.00;;;10.35;100.00
44992;BME280;56865;51.618;7.406;2023-03-03T06:01:16;101616.63;;;10.50;100.00
44992;BME280;56865;51.618;7.406;2023-03-03T06:03:46;101623.72;;;10.18;100.00
44992;BME280;56865;51.618;7.406;2023-03-03T06:06:15;101627.63;;;10.29;100.00
44992;BME280;56865;51.618;7.406;2023-03-03T06:08:47;101633.34;;;10.25;100.00
44992;BME280;56865;51.618;7.406;2023-03-03T06:11:22;101629.84;;;10.21;100.00
44992;BME280;56865;51.618;7.406;2023-03-03T06:13:54;101637.66;;;10.26;100.00
44992;BME280;56865;51.618;7.406;2023-03-03T06:16:24;101639.31;;;10.44;100.00
44992;BME280;56865;51.618;7.406;2023-03-03T06:18:54;101645.63;;;10.34;100.00
44992;BME280;56865;51.618;7.406;2023-03-03T06:21:23;101648.16;;;10.52;100.00
44992;BME280;56865;51.618;7.406;2023-03-03T06:23:53;101646.41;;;10.51;100.00
44992;BME280;56865;51.618;7.406;2023-03-03T06:26:22;101650.28;;;10.43;100.00
44992;BME280;56865;51.618;7.406;2023-03-03T06:28:55;101657.41;;;10.50;100.00
44992;BME280;56865;51.618;7.406;2023-03-03T06:31:24;101658.59;;;10.78;100.00
44992;BME280;56865;51.618;7.406;2023-03-03T06:33:54;101662.53;;;10.69;99.69
44992;BME280;56865;51.618;7.406;2023-03-03T06:36:24;101659.91;;;10.68;100.00
44992;BME280;56865;51.618;7.406;2023-03-03T06:38:54;101664.88;;;10.65;100.00
44992;BME280;56865;51.618;7.406;2023-03-03T06:41:23;101661.31;;;10.42;100.00
44992;BME280;56865;51.618;7.406;2023-03-03T06:43:56;101670.38;;;10.54;100.00
44992;BME280;56865;51.618;7.406;2023-03-03T06:46:26;101671.38;;;10.58;100.00
44992;BME280;56865;51.618;7.406;2023-03-03T06:48:56;101680.47;;;10.72;100.00
44992;BME280;56865;51.618;7.406;2023-03-03T06:51:26;101673.25;;;10.82;100.00
44992;BME280;56865;51.618;7.406;2023-03-03T06:54:01;101681.44;;;10.75;100.00
44992;BME280;56865;51.618;7.406;2023-03-03T06:56:35;101678.16;;;10.77;100.00
44992;BME280;56865;51.618;7.406;2023-03-03T06:59:11;101680.22;;;10.66;100.00
44992;BME280;56865;51.618;7.406;2023-03-03T07:01:41;101683.44;;;10.62;100.00
44992;BME280;56865;51.618;7.406;2023-03-03T07:04:16;101683.25;;;10.57;100.00
44992;BME280;56865;51.618;7.406;2023-03-03T07:06:51;101694.44;;;10.81;100.00
44992;BME280;56865;51.618;7.406;2023-03-03T07:09:21;101697.28;;;10.67;99.33
44992;BME280;56865;51.618;7.406;2023-03-03T07:11:51;101684.03;;;10.96;100.00
44992;BME280;56865;51.618;7.406;2023-03-03T07:14:24;101694.66;;;11.06;100.00
44992;BME280;56865;51.618;7.406;2023-03-03T07:16:55;101699.38;;;10.56;100.00
44992;BME280;56865;51.618;7.406;2023-03-03T07:19:28;101690.91;;;10.77;100.00
44992;BME280;56865;51.618;7.406;2023-03-03T07:22:00;101701.81;;;10.94;98.87
44992;BME280;56865;51.618;7.406;2023-03-03T07:24:32;101702.38;;;10.87;100.00
44992;BME280;56865;51.618;7.406;2023-03-03T07:27:05;101707.63;;;10.70;100.00
44992;BME280;56865;51.618;7.406;2023-03-03T07:29:42;101699.81;;;10.87;100.00
44992;BME280;56865;51.618;7.406;2023-03-03T07:32:17;101700.53;;;11.04;100.00
44992;BME280;56865;51.618;7.406;2023-03-03T07:34:49;101711.03;;;10.91;100.00
44992;BME280;56865;51.618;7.406;2023-03-03T07:37:22;101716.66;;;10.64;100.00
44992;BME280;56865;51.618;7.406;2023-03-03T07:39:53;101718.06;;;10.77;100.00
44992;BME280;56865;51.618;7.406;2023-03-03T07:42:24;101719.47;;;10.32;100.00
44992;BME280;56865;51.618;7.406;2023-03-03T07:44:57;101723.91;;;10.74;100.00
44992;BME280;56865;51.618;7.406;2023-03-03T07:47:28;101726.72;;;10.80;100.00
44992;BME280;56865;51.618;7.406;2023-03-03T07:49:59;101733.16;;;10.92;100.00
44992;BME280;56865;51.618;7.406;2023-03-03T07:52:30;101736.91;;;11.00;100.00
44992;BME280;56865;51.618;7.406;2023-03-03T07:55:01;101737.94;;;11.03;100.00
44992;BME280;56865;51.618;7.406;2023-03-03T07:57:33;101736.72;;;10.76;100.00
44992;BME280;56865;51.618;7.406;2023-03-03T08:03:09;101750.97;;;10.70;100.00
44992;BME280;56865;51.618;7.406;2023-03-03T08:05:40;101743.31;;;10.70;100.00
44992;BME280;56865;51.618;7.406;2023-03-03T08:08:17;101740.28;;;10.60;99.65
44992;BME280;56865;51.618;7.406;2023-03-03T08:10:48;101743.72;;;10.80;99.67
44992;BME280;56865;51.618;7.406;2023-03-03T08:13:18;101747.69;;;10.73;100.00
44992;BME280;56865;51.618;7.406;2023-03-03T08:15:53;101749.41;;;10.94;99.67
44992;BME280;56865;51.618;7.406;2023-03-03T08:18:26;101755.13;;;10.88;100.00
44992;BME280;56865;51.618;7.406;2023-03-03T08:20:57;101756.19;;;10.93;100.00
44992;BME280;56865;51.618;7.406;2023-03-03T08:23:28;101763.84;;;10.93;100.00
44992;BME280;56865;51.618;7.406;2023-03-03T08:25:57;101765.19;;;11.04;100.00
44992;BME280;56865;51.618;7.406;2023-03-03T08:28:27;101763.72;;;10.70;100.00
44992;BME280;56865;51.618;7.406;2023-03-03T08:30:59;101765.72;;;10.58;99.69
44992;BME280;56865;51.618;7.406;2023-03-03T08:33:45;101769.94;;;10.77;100.00
44992;BME280;56865;51.618;7.406;2023-03-03T08:36:15;101776.69;;;10.77;100.00
44992;BME280;56865;51.618;7.406;2023-03-03T08:38:44;101777.66;;;10.79;100.00
44992;BME280;56865;51.618;7.406;2023-03-03T08:41:14;101773.84;;;10.88;100.00
44992;BME280;56865;51.618;7.406;2023-03-03T08:43:44;101780.03;;;10.94;99.72
44992;BME280;56865;51.618;7.406;2023-03-03T08:46:16;101776.09;;;10.63;100.00
44992;BME280;56865;51.618;7.406;2023-03-03T08:48:46;101778.28;;;10.73;100.00
44992;BME280;56865;51.618;7.406;2023-03-03T08:51:15;101784.50;;;10.80;100.00
44992;BME280;56865;51.618;7.406;2023-03-03T08:53:44;101779.00;;;10.90;100.00
44992;BME280;56865;51.618;7.406;2023-03-03T08:56:14;101779.91;;;10.91;100.00
44992;BME280;56865;51.618;7.406;2023-03-03T08:58:44;101779.53;;;10.63;100.00
44992;BME280;56865;51.618;7.406;2023-03-03T09:01:30;101780.78;;;11.11;100.00
44992;BME280;56865;51.618;7.406;2023-03-03T09:04:00;101778.66;;;11.21;100.00
44992;BME280;56865;51.618;7.406;2023-03-03T09:06:29;101781.94;;;11.19;100.00
44992;BME280;56865;51.618;7.406;2023-03-03T09:08:59;101782.09;;;11.02;100.00
44992;BME280;56865;51.618;7.406;2023-03-03T09:11:30;101793.84;;;10.79;100.00
44992;BME280;56865;51.618;7.406;2023-03-03T09:14:01;101796.47;;;11.20;100.00
44992;BME280;56865;51.618;7.406;2023-03-03T09:16:37;101792.16;;;11.19;100.00
44992;BME280;56865;51.618;7.406;2023-03-03T09:19:21;101793.69;;;10.76;99.71
44992;BME280;56865;51.618;7.406;2023-03-03T09:21:51;101797.94;;;11.15;100.00
44992;BME280;56865;51.618;7.406;2023-03-03T09:24:25;101796.47;;;11.20;100.00
44992;BME280;56865;51.618;7.406;2023-03-03T09:26:55;101789.94;;;10.87;98.76
44992;BME280;56865;51.618;7.406;2023-03-03T09:29:26;101797.47;;;11.04;98.67
44992;BME280;56865;51.618;7.406;2023-03-03T09:32:00;101797.06;;;10.95;100.00
44992;BME280;56865;51.618;7.406;2023-03-03T09:34:36;101801.44;;;10.97;100.00
44992;BME280;56865;51.618;7.406;2023-03-03T09:37:14;101800.34;;;11.31;100.00
44992;BME280;56865;51.618;7.406;2023-03-03T09:39:48;101808.38;;;11.41;100.00
44992;BME280;56865;51.618;7.406;2023-03-03T09:42:23;101799.78;;;11.79;99.95
44992;BME280;56865;51.618;7.406;2023-03-03T09:47:46;101808.63;;;11.66;98.62
44992;BME280;56865;51.618;7.406;2023-03-03T09:50:25;101817.81;;;11.63;97.71
44992;BME280;56865;51.618;7.406;2023-03-03T09:53:01;101810.88;;;11.39;100.00
44992;BME280;56865;51.618;7.406;2023-03-03T09:55:37;101823.41;;;11.54;99.37
44992;BME280;56865;51.618;7.406;2023-03-03T09:58:14;101810.72;;;11.77;100.00
44992;BME280;56865;51.618;7.406;2023-03-03T10:00:54;101812.97;;;11.69;97.80
44992;BME280;56865;51.618;7.406;2023-03-03T10:06:21;101813.50;;;11.81;100.00
44992;BME280;56865;51.618;7.406;2023-03-03T10:08:58;101818.53;;;11.80;100.00
44992;BME280;56865;51.618;7.406;2023-03-03T10:11:31;101818.06;;;11.48;99.54
44992;BME280;56865;51.618;7.406;2023-03-03T10:14:12;101817.66;;;11.79;99.53
44992;BME280;56865;51.618;7.406;2023-03-03T10:16:48;101825.31;;;11.79;98.01
44992;BME280;56865;51.618;7.406;2023-03-03T10:19:26;101830.88;;;11.49;100.00
44992;BME280;56865;51.618;7.406;2023-03-03T10:22:10;101819.91;;;11.93;100.00
44992;BME280;56865;51.618;7.406;2023-03-03T10:24:49;101826.06;;;11.77;100.00
44992;BME280;56865;51.618;7.406;2023-03-03T10:27:29;101833.84;;;11.39;98.47
44992;BME280;56865;51.618;7.406;2023-03-03T10:30:06;101833.22;;;12.05;100.00
44992;BME280;56865;51.618;7.406;2023-03-03T10:32:41;101839.53;;;11.94;100.00
44992;BME280;56865;51.618;7.406;2023-03-03T10:35:17;101839.84;;;11.80;99.46
44992;BME280;56865;51.618;7.406;2023-03-03T10:37:57;101834.47;;;11.95;99.67
44992;BME280;56865;51.618;7.406;2023-03-03T10:40:32;101840.25;;;12.11;100.00
44992;BME280;56865;51.618;7.406;2023-03-03T10:43:10;101845.09;;;12.05;98.73
44992;BME280;56865;51.618;7.406;2023-03-03T10:48:54;101838.56;;;12.11;98.00
44992;BME280;56865;51.618;7.406;2023-03-03T10:51:30;101839.44;;;11.92;98.71
44992;BME280;56865;51.618;7.406;2023-03-03T10:54:08;101833.13;;;12.25;97.80
44992;BME280;56865;51.618;7.406;2023-03-03T10:56:44;101837.38;;;12.24;99.84
44992;BME280;56865;51.618;7.406;2023-03-03T11:02:07;101823.44;;;12.39;99.99
44992;BME280;56865;51.618;7.406;2023-03-03T11:04:52;101835.69;;;12.03;96.07
44992;BME280;56865;51.618;7.406;2023-03-03T11:07:28;101824.03;;;12.54;99.76
44992;BME280;56865;51.618;7.406;2023-03-03T11:10:07;101822.38;;;12.56;100.00
44992;BME280;56865;51.618;7.406;2023-03-03T11:12:45;101823.44;;;12.17;99.22
44992;BME280;56865;51.618;7.406;2023-03-03T11:15:21;101833.84;;;12.43;99.54
44992;BME280;56865;51.618;7.406;2023-03-03T11:17:57;101832.47;;;12.51;99.63
44992;BME280;56865;51.618;7.406;2023-03-03T11:20:34;101829.59;;;12.44;98.27
44992;BME280;56865;51.618;7.406;2023-03-03T11:23:10;101826.22;;;12.67;100.00
44992;BME280;56865;51.618;7.406;2023-03-03T11:25:49;101826.69;;;12.57;98.73
44992;BME280;56865;51.618;7.406;2023-03-03T11:28:24;101825.53;;;12.49;98.93
44992;BME280;56865;51.618;7.406;2023-03-03T11:31:05;101821.47;;;12.31;96.81
44992;BME280;56865;51.618;7.406;2023-03-03T11:33:41;101823.16;;;12.54;99.82
44992;BME280;56865;51.618;7.406;2023-03-03T11:36:14;101815.13;;;12.67;100.00
44992;BME280;56865;51.618;7.406;2023-03-03T11:38:50;101824.84;;;12.76;98.09
44992;BME280;56865;51.618;7.406;2023-03-03T11:41:28;101818.59;;;12.69;96.44
44992;BME280;56865;51.618;7.406;2023-03-03T11:44:04;101813.47;;;12.69;100.00
44992;BME280;56865;51.618;7.406;2023-03-03T11:46:41;101817.22;;;13.01;97.15
44992;BME280;56865;51.618;7.406;2023-03-03T11:49:14;101814.56;;;12.74;97.36
44992;BME280;56865;51.618;7.406;2023-03-03T11:51:53;101805.44;;;12.82;94.87
44992;BME280;56865;51.618;7.406;2023-03-03T11:54:27;101809.69;;;13.30;99.69
44992;BME280;56865;51.618;7.406;2023-03-03T11:57:09;101810.03;;;13.15;96.96
44992;BME280;56865;51.618;7.406;2023-03-03T11:59:42;101802.84;;;13.05;96.21
44992;BME280;56865;51.618;7.406;2023-03-03T12:05:03;101796.41;;;13.16;96.27
44992;BME280;56865;51.618;7.406;2023-03-03T12:07:36;101789.84;;;12.99;93.34
44992;BME280;56865;51.618;7.406;2023-03-03T12:10:13;101795.72;;;13.45;98.75
44992;BME280;56865;51.618;7.406;2023-03-03T12:12:50;101790.94;;;13.56;98.44
44992;BME280;56865;51.618;7.406;2023-03-03T12:15:26;101798.34;;;13.46;92.68
44992;BME280;56865;51.618;7.406;2023-03-03T12:18:06;101786.94;;;13.14;97.18
44992;BME280;56865;51.618;7.406;2023-03-03T12:20:42;101790.09;;;13.55;98.17
44992;BME280;56865;51.618;7.406;2023-03-03T12:23:21;101787.00;;;13.65;96.46
44992;BME280;56865;51.618;7.406;2023-03-03T12:25:54;101783.84;;;12.98;99.63
44992;BME280;56865;51.618;7.406;2023-03-03T12:28:30;101783.31;;;13.33;95.38
44992;BME280;56865;51.618;7.406;2023-03-03T12:33:53;101783.88;;;13.24;93.78
44992;BME280;56865;51.618;7.406;2023-03-03T12:36:28;101778.25;;;12.84;98.83
44992;BME280;56865;51.618;7.406;2023-03-03T12:39:05;101774.38;;;12.72;99.12
44992;BME280;56865;51.618;7.406;2023-03-03T12:41:46;101767.34;;;12.90;98.15
44992;BME280;56865;51.618;7.406;2023-03-03T12:44:25;101775.50;;;13.28;98.94
44992;BME280;56865;51.618;7.406;2023-03-03T12:46:58;101781.47;;;13.53;92.65
44992;BME280;56865;51.618;7.406;2023-03-03T12:49:30;101775.66;;;13.85;95.79
44992;BME280;56865;51.618;7.406;2023-03-03T12:52:13;101782.16;;;14.29;94.37
44992;BME280;56865;51.618;7.406;2023-03-03T12:54:49;101773.69;;;14.91;93.74
44992;BME280;56865;51.618;7.406;2023-03-03T12:57:24;101774.13;;;14.76;93.14
44992;BME280;56865;51.618;7.406;2023-03-03T13:00:10;101773.44;;;13.95;95.16
44992;BME280;56865;51.618;7.406;2023-03-03T13:02:46;101772.88;;;13.51;94.97
44992;BME280;56865;51.618;7.406;2023-03-03T13:05:23;101771.13;;;13.50;95.90
44992;BME280;56865;51.618;7.406;2023-03-03T13:07:59;101775.59;;;13.83;96.09
44992;BME280;56865;51.618;7.406;2023-03-03T13:10:34;101773.84;;;14.37;96.41
44992;BME280;56865;51.618;7.406;2023-03-03T13:13:05;101772.16;;;14.68;93.98
44992;BME280;56865;51.618;7.406;2023-03-03T13:15:42;101770.78;;;14.50;93.16
44992;BME280;56865;51.618;7.406;2023-03-03T13:18:26;101773.13;;;14.71;95.80
44992;BME280;56865;51.618;7.406;2023-03-03T13:20:59;101764.94;;;14.83;94.86
44992;BME280;56865;51.618;7.406;2023-03-03T13:23:34;101773.97;;;15.01;89.12
44992;BME280;56865;51.618;7.406;2023-03-03T13:26:09;101766.22;;;15.68;93.17
44992;BME280;56865;51.618;7.406;2023-03-03T13:28:46;101774.59;;;15.60;87.83
44992;BME280;56865;51.618;7.406;2023-03-03T13:31:21;101772.22;;;15.00;91.89